createdAt,value
2022-11-15T00:12:48.127Z,11.18
2022-11-15T00:32:48.096Z,11.18
2022-11-15T00:52:48.128Z,11.31
2022-11-15T01:12:48.143Z,11.06
2022-11-15T01:32:48.151Z,11.18
2022-11-15T01:52:48.079Z,11.18
2022-11-15T02:12:48.086Z,11.25
2022-11-15T02:32:48.102Z,11.06
2022-11-15T02:52:48.166Z,11.00
2022-11-15T03:12:48.144Z,11.12
2022-11-15T03:32:48.109Z,10.62
2022-11-15T03:52:48.073Z,10.62
2022-11-15T04:12:48.125Z,10.75
2022-11-15T04:32:48.111Z,10.68
2022-11-15T04:52:48.112Z,10.81
2022-11-15T05:12:48.141Z,10.81
2022-11-15T05:52:48.100Z,10.50
2022-11-15T06:12:48.120Z,10.50
2022-11-15T06:32:48.135Z,10.68
2022-11-15T06:52:48.151Z,10.62
2022-11-15T07:12:48.081Z,10.81
2022-11-15T07:32:48.099Z,10.75
2022-11-15T07:52:48.198Z,10.75
2022-11-15T08:12:48.133Z,11.00
2022-11-15T08:32:48.152Z,10.93
2022-11-15T08:52:48.203Z,11.00
2022-11-15T09:12:48.262Z,11.18
2022-11-15T09:32:48.346Z,11.25
2022-11-15T09:52:48.241Z,11.31
2022-11-15T10:12:48.062Z,11.31
2022-11-15T10:32:48.141Z,11.43
2022-11-15T10:52:48.159Z,11.62
2022-11-15T11:12:48.073Z,11.37
2022-11-15T11:32:48.162Z,11.50
2022-11-15T11:52:48.124Z,11.37
2022-11-15T12:12:47.980Z,11.68
2022-11-15T12:32:48.007Z,11.75
2022-11-15T12:52:48.103Z,11.75
2022-11-15T13:12:47.951Z,11.75
2022-11-15T13:32:47.886Z,11.68
2022-11-15T13:52:48.007Z,11.62
2022-11-15T14:12:47.938Z,11.68
2022-11-15T14:32:47.873Z,11.68
2022-11-15T14:52:47.946Z,11.68
2022-11-15T15:12:47.817Z,11.68
2022-11-15T15:32:47.838Z,11.75
2022-11-15T15:52:47.849Z,11.50
2022-11-15T16:12:47.833Z,11.68
2022-11-15T16:32:47.795Z,11.56
2022-11-15T16:52:47.904Z,11.56
2022-11-15T17:12:47.749Z,11.50
2022-11-15T17:32:47.754Z,11.62
2022-11-15T17:52:47.768Z,11.50
2022-11-15T18:12:47.696Z,11.50
2022-11-15T18:32:47.883Z,11.43
2022-11-15T18:52:47.819Z,11.25
2022-11-15T19:12:47.931Z,11.18
2022-11-15T19:32:47.841Z,11.37
2022-11-15T19:52:47.825Z,11.37
2022-11-15T20:12:47.887Z,11.37
2022-11-15T20:32:47.860Z,11.25
2022-11-15T20:52:47.649Z,11.25
2022-11-15T21:12:47.769Z,11.25
2022-11-15T21:32:47.883Z,11.25
2022-11-15T21:52:47.663Z,11.25
2022-11-15T22:12:47.612Z,11.25
2022-11-15T22:32:47.640Z,11.18
2022-11-15T22:52:47.656Z,11.25
2022-11-15T23:12:47.674Z,11.31
2022-11-15T23:32:47.615Z,11.18
2022-11-15T23:52:47.607Z,11.12
